sensor_id;sensor_type;location;lat;lon;timestamp;P1;durP1;ratioP1;P2;durP2;ratioP2
14584;SDS011;7379;51.506;11.876;2023-11-22T00:01:10;8.23;;;6.80;;
14584;SDS011;7379;51.506;11.876;2023-11-22T00:03:37;7.50;;;6.30;;
14584;SDS011;7379;51.506;11.876;2023-11-22T00:06:04;10.20;;;6.60;;
14584;SDS011;7379;51.506;11.876;2023-11-22T00:08:34;7.50;;;6.50;;
14584;SDS011;7379;51.506;11.876;2023-11-22T00:11:01;10.20;;;6.67;;
14584;SDS011;7379;51.506;11.876;2023-11-22T00:13:28;8.03;;;6.43;;
14584;SDS011;7379;51.506;11.876;2023-11-22T00:15:57;9.57;;;6.87;;
14584;SDS011;7379;51.506;11.876;2023-11-22T00:18:24;8.47;;;6.27;;
14584;SDS011;7379;51.506;11.876;2023-11-22T00:20:51;8.10;;;6.20;;
14584;SDS011;7379;51.506;11.876;2023-11-22T00:23:20;8.17;;;6.40;;
14584;SDS011;7379;51.506;11.876;2023-11-22T00:25:53;7.97;;;6.60;;
14584;SDS011;7379;51.506;11.876;2023-11-22T00:28:20;8.93;;;6.53;;
14584;SDS011;7379;51.506;11.876;2023-11-22T00:30:47;8.93;;;6.50;;
14584;SDS011;7379;51.506;11.876;2023-11-22T00:33:14;8.03;;;6.60;;
14584;SDS011;7379;51.506;11.876;2023-11-22T00:35:44;8.50;;;6.23;;
14584;SDS011;7379;51.506;11.876;2023-11-22T00:38:11;7.87;;;6.60;;
14584;SDS011;7379;51.506;11.876;2023-11-22T00:40:38;8.07;;;6.63;;
14584;SDS011;7379;51.506;11.876;2023-11-22T00:43:06;9.03;;;6.40;;
14584;SDS011;7379;51.506;11.876;2023-11-22T00:45:33;8.87;;;6.50;;
14584;SDS011;7379;51.506;11.876;2023-11-22T00:48:00;8.70;;;6.60;;
14584;SDS011;7379;51.506;11.876;2023-11-22T00:50:27;6.70;;;5.90;;
14584;SDS011;7379;51.506;11.876;2023-11-22T00:52:54;8.00;;;6.30;;
14584;SDS011;7379;51.506;11.876;2023-11-22T00:55:21;7.93;;;6.60;;
14584;SDS011;7379;51.506;11.876;2023-11-22T00:57:47;7.90;;;6.37;;
14584;SDS011;7379;51.506;11.876;2023-11-22T01:00:16;6.63;;;5.77;;
14584;SDS011;7379;51.506;11.876;2023-11-22T01:02:43;8.37;;;6.50;;
14584;SDS011;7379;51.506;11.876;2023-11-22T01:05:10;7.43;;;5.70;;
14584;SDS011;7379;51.506;11.876;2023-11-22T01:07:38;6.90;;;5.90;;
14584;SDS011;7379;51.506;11.876;2023-11-22T01:10:05;8.13;;;5.97;;
14584;SDS011;7379;51.506;11.876;2023-11-22T01:12:33;7.80;;;5.90;;
14584;SDS011;7379;51.506;11.876;2023-11-22T01:14:59;7.70;;;6.00;;
14584;SDS011;7379;51.506;11.876;2023-11-22T01:17:28;7.03;;;5.80;;
14584;SDS011;7379;51.506;11.876;2023-11-22T01:19:55;7.17;;;5.30;;
14584;SDS011;7379;51.506;11.876;2023-11-22T01:22:23;7.90;;;6.17;;
14584;SDS011;7379;51.506;11.876;2023-11-22T01:24:50;7.00;;;5.63;;
14584;SDS011;7379;51.506;11.876;2023-11-22T01:27:17;6.87;;;5.80;;
14584;SDS011;7379;51.506;11.876;2023-11-22T01:29:43;6.87;;;5.57;;
14584;SDS011;7379;51.506;11.876;2023-11-22T01:32:10;6.37;;;5.57;;
14584;SDS011;7379;51.506;11.876;2023-11-22T01:34:39;7.17;;;5.47;;
14584;SDS011;7379;51.506;11.876;2023-11-22T01:37:06;7.00;;;5.47;;
14584;SDS011;7379;51.506;11.876;2023-11-22T01:39:32;7.10;;;5.57;;
14584;SDS011;7379;51.506;11.876;2023-11-22T01:41:59;6.80;;;5.63;;
14584;SDS011;7379;51.506;11.876;2023-11-22T01:44:26;6.90;;;5.47;;
14584;SDS011;7379;51.506;11.876;2023-11-22T01:46:53;6.17;;;5.27;;
14584;SDS011;7379;51.506;11.876;2023-11-22T01:49:20;6.97;;;5.80;;
14584;SDS011;7379;51.506;11.876;2023-11-22T01:51:50;7.13;;;6.10;;
14584;SDS011;7379;51.506;11.876;2023-11-22T01:54:17;6.70;;;5.33;;
14584;SDS011;7379;51.506;11.876;2023-11-22T01:56:46;6.47;;;5.30;;
14584;SDS011;7379;51.506;11.876;2023-11-22T01:59:14;6.13;;;5.37;;
14584;SDS011;7379;51.506;11.876;2023-11-22T02:01:41;6.27;;;5.20;;
14584;SDS011;7379;51.506;11.876;2023-11-22T02:04:09;7.50;;;5.20;;
14584;SDS011;7379;51.506;11.876;2023-11-22T02:06:38;6.03;;;5.10;;
14584;SDS011;7379;51.506;11.876;2023-11-22T02:09:06;6.80;;;5.07;;
14584;SDS011;7379;51.506;11.876;2023-11-22T02:11:38;5.53;;;4.70;;
14584;SDS011;7379;51.506;11.876;2023-11-22T02:14:07;5.73;;;4.80;;
14584;SDS011;7379;51.506;11.876;2023-11-22T02:16:34;6.50;;;4.93;;
14584;SDS011;7379;51.506;11.876;2023-11-22T02:19:01;5.87;;;4.93;;
14584;SDS011;7379;51.506;11.876;2023-11-22T02:21:30;5.70;;;4.63;;
14584;SDS011;7379;51.506;11.876;2023-11-22T02:23:58;5.60;;;4.63;;
14584;SDS011;7379;51.506;11.876;2023-11-22T02:26:25;5.70;;;4.70;;
14584;SDS011;7379;51.506;11.876;2023-11-22T02:28:52;6.43;;;4.80;;
14584;SDS011;7379;51.506;11.876;2023-11-22T02:31:19;5.47;;;4.70;;
14584;SDS011;7379;51.506;11.876;2023-11-22T02:33:45;5.40;;;4.43;;
14584;SDS011;7379;51.506;11.876;2023-11-22T02:36:12;6.03;;;4.80;;
14584;SDS011;7379;51.506;11.876;2023-11-22T02:38:39;6.37;;;4.83;;
14584;SDS011;7379;51.506;11.876;2023-11-22T02:41:08;6.20;;;5.20;;
14584;SDS011;7379;51.506;11.876;2023-11-22T02:43:35;5.33;;;4.70;;
14584;SDS011;7379;51.506;11.876;2023-11-22T02:46:02;6.20;;;4.70;;
14584;SDS011;7379;51.506;11.876;2023-11-22T02:48:29;5.00;;;4.30;;
14584;SDS011;7379;51.506;11.876;2023-11-22T02:50:56;5.43;;;4.73;;
14584;SDS011;7379;51.506;11.876;2023-11-22T02:53:22;5.73;;;4.47;;
14584;SDS011;7379;51.506;11.876;2023-11-22T02:55:49;5.17;;;4.67;;
14584;SDS011;7379;51.506;11.876;2023-11-22T02:58:17;5.83;;;4.27;;
14584;SDS011;7379;51.506;11.876;2023-11-22T03:00:44;5.67;;;4.50;;
14584;SDS011;7379;51.506;11.876;2023-11-22T03:03:11;5.63;;;4.20;;
14584;SDS011;7379;51.506;11.876;2023-11-22T03:05:38;5.53;;;4.67;;
14584;SDS011;7379;51.506;11.876;2023-11-22T03:08:06;5.60;;;4.53;;
14584;SDS011;7379;51.506;11.876;2023-11-22T03:10:35;5.03;;;4.40;;
14584;SDS011;7379;51.506;11.876;2023-11-22T03:13:01;5.10;;;4.50;;
14584;SDS011;7379;51.506;11.876;2023-11-22T03:15:30;5.80;;;4.57;;
14584;SDS011;7379;51.506;11.876;2023-11-22T03:17:57;6.10;;;4.60;;
14584;SDS011;7379;51.506;11.876;2023-11-22T03:20:25;6.73;;;4.30;;
14584;SDS011;7379;51.506;11.876;2023-11-22T03:22:51;6.37;;;4.50;;
14584;SDS011;7379;51.506;11.876;2023-11-22T03:25:18;5.93;;;4.70;;
14584;SDS011;7379;51.506;11.876;2023-11-22T03:27:45;5.47;;;4.50;;
14584;SDS011;7379;51.506;11.876;2023-11-22T03:30:12;5.20;;;4.40;;
14584;SDS011;7379;51.506;11.876;2023-11-22T03:32:41;5.27;;;4.17;;
14584;SDS011;7379;51.506;11.876;2023-11-22T03:35:09;7.17;;;4.50;;
14584;SDS011;7379;51.506;11.876;2023-11-22T03:37:37;5.83;;;4.43;;
14584;SDS011;7379;51.506;11.876;2023-11-22T03:40:04;5.03;;;4.03;;
14584;SDS011;7379;51.506;11.876;2023-11-22T03:42:32;5.67;;;4.40;;
14584;SDS011;7379;51.506;11.876;2023-11-22T03:44:59;5.03;;;4.40;;
14584;SDS011;7379;51.506;11.876;2023-11-22T03:47:26;5.97;;;4.67;;
14584;SDS011;7379;51.506;11.876;2023-11-22T03:49:54;5.23;;;4.47;;
14584;SDS011;7379;51.506;11.876;2023-11-22T03:52:21;4.90;;;4.33;;
14584;SDS011;7379;51.506;11.876;2023-11-22T03:54:47;5.60;;;4.43;;
14584;SDS011;7379;51.506;11.876;2023-11-22T03:57:14;6.77;;;4.40;;
14584;SDS011;7379;51.506;11.876;2023-11-22T03:59:41;5.60;;;4.43;;
14584;SDS011;7379;51.506;11.876;2023-11-22T04:02:09;6.03;;;4.57;;
14584;SDS011;7379;51.506;11.876;2023-11-22T04:04:36;6.40;;;4.43;;
14584;SDS011;7379;51.506;11.876;2023-11-22T04:07:06;5.27;;;4.20;;
14584;SDS011;7379;51.506;11.876;2023-11-22T04:09:33;5.43;;;4.43;;
14584;SDS011;7379;51.506;11.876;2023-11-22T04:12:00;5.77;;;4.33;;
14584;SDS011;7379;51.506;11.876;2023-11-22T04:14:26;5.60;;;4.50;;
14584;SDS011;7379;51.506;11.876;2023-11-22T04:16:53;5.70;;;4.40;;
14584;SDS011;7379;51.506;11.876;2023-11-22T04:19:20;6.00;;;4.63;;
14584;SDS011;7379;51.506;11.876;2023-11-22T04:21:47;4.90;;;4.30;;
14584;SDS011;7379;51.506;11.876;2023-11-22T04:24:15;5.20;;;4.40;;
14584;SDS011;7379;51.506;11.876;2023-11-22T04:26:42;5.23;;;4.27;;
14584;SDS011;7379;51.506;11.876;2023-11-22T04:29:09;4.53;;;4.00;;
14584;SDS011;7379;51.506;11.876;2023-11-22T04:31:36;5.20;;;4.37;;
14584;SDS011;7379;51.506;11.876;2023-11-22T04:34:03;4.90;;;4.40;;
14584;SDS011;7379;51.506;11.876;2023-11-22T04:36:30;5.17;;;4.43;;
14584;SDS011;7379;51.506;11.876;2023-11-22T04:38:57;5.67;;;4.60;;
14584;SDS011;7379;51.506;11.876;2023-11-22T04:41:25;5.10;;;4.33;;
14584;SDS011;7379;51.506;11.876;2023-11-22T04:43:52;5.20;;;4.40;;
14584;SDS011;7379;51.506;11.876;2023-11-22T04:46:19;6.00;;;4.70;;
14584;SDS011;7379;51.506;11.876;2023-11-22T04:48:46;5.73;;;4.53;;
14584;SDS011;7379;51.506;11.876;2023-11-22T04:51:16;6.10;;;4.83;;
14584;SDS011;7379;51.506;11.876;2023-11-22T04:53:43;5.50;;;4.20;;
14584;SDS011;7379;51.506;11.876;2023-11-22T04:56:10;5.90;;;4.63;;
14584;SDS011;7379;51.506;11.876;2023-11-22T04:58:38;5.67;;;4.60;;
14584;SDS011;7379;51.506;11.876;2023-11-22T05:01:05;5.43;;;4.47;;
14584;SDS011;7379;51.506;11.876;2023-11-22T05:03:35;4.43;;;3.83;;
14584;SDS011;7379;51.506;11.876;2023-11-22T05:06:02;5.63;;;4.00;;
14584;SDS011;7379;51.506;11.876;2023-11-22T05:08:30;5.40;;;4.40;;
14584;SDS011;7379;51.506;11.876;2023-11-22T05:10:56;4.93;;;4.30;;
14584;SDS011;7379;51.506;11.876;2023-11-22T05:13:23;4.70;;;4.20;;
14584;SDS011;7379;51.506;11.876;2023-11-22T05:15:52;4.90;;;4.13;;
14584;SDS011;7379;51.506;11.876;2023-11-22T05:18:19;5.33;;;4.33;;
14584;SDS011;7379;51.506;11.876;2023-11-22T05:20:46;5.37;;;4.27;;
14584;SDS011;7379;51.506;11.876;2023-11-22T05:23:14;5.47;;;4.47;;
14584;SDS011;7379;51.506;11.876;2023-11-22T05:25:41;5.70;;;4.80;;
14584;SDS011;7379;51.506;11.876;2023-11-22T05:28:08;5.30;;;4.30;;
14584;SDS011;7379;51.506;11.876;2023-11-22T05:30:34;5.70;;;4.80;;
14584;SDS011;7379;51.506;11.876;2023-11-22T05:33:03;6.43;;;4.93;;
14584;SDS011;7379;51.506;11.876;2023-11-22T05:35:30;5.33;;;4.43;;
14584;SDS011;7379;51.506;11.876;2023-11-22T05:37:57;6.73;;;4.73;;
14584;SDS011;7379;51.506;11.876;2023-11-22T05:40:23;6.80;;;4.90;;
14584;SDS011;7379;51.506;11.876;2023-11-22T05:42:50;5.80;;;4.80;;
14584;SDS011;7379;51.506;11.876;2023-11-22T05:45:17;6.23;;;4.77;;
14584;SDS011;7379;51.506;11.876;2023-11-22T05:47:44;6.33;;;4.70;;
14584;SDS011;7379;51.506;11.876;2023-11-22T05:50:12;6.37;;;4.80;;
14584;SDS011;7379;51.506;11.876;2023-11-22T05:52:39;6.17;;;4.80;;
14584;SDS011;7379;51.506;11.876;2023-11-22T05:55:06;6.33;;;4.60;;
14584;SDS011;7379;51.506;11.876;2023-11-22T05:57:34;6.90;;;5.03;;
14584;SDS011;7379;51.506;11.876;2023-11-22T06:00:01;5.13;;;4.60;;
14584;SDS011;7379;51.506;11.876;2023-11-22T06:02:28;5.80;;;4.73;;
14584;SDS011;7379;51.506;11.876;2023-11-22T06:04:55;6.27;;;4.80;;
14584;SDS011;7379;51.506;11.876;2023-11-22T06:07:23;7.73;;;4.70;;
14584;SDS011;7379;51.506;11.876;2023-11-22T06:09:50;7.33;;;5.10;;
14584;SDS011;7379;51.506;11.876;2023-11-22T06:12:17;6.30;;;4.70;;
14584;SDS011;7379;51.506;11.876;2023-11-22T06:14:45;6.07;;;4.80;;
14584;SDS011;7379;51.506;11.876;2023-11-22T06:17:12;6.07;;;4.40;;
14584;SDS011;7379;51.506;11.876;2023-11-22T06:19:39;6.13;;;4.83;;
14584;SDS011;7379;51.506;11.876;2023-11-22T06:22:06;5.43;;;4.37;;
14584;SDS011;7379;51.506;11.876;2023-11-22T06:24:34;7.40;;;4.97;;
14584;SDS011;7379;51.506;11.876;2023-11-22T06:27:01;5.67;;;4.80;;
14584;SDS011;7379;51.506;11.876;2023-11-22T06:29:28;8.13;;;5.37;;
14584;SDS011;7379;51.506;11.876;2023-11-22T06:31:55;5.67;;;4.97;;
14584;SDS011;7379;51.506;11.876;2023-11-22T06:34:22;6.57;;;5.23;;
14584;SDS011;7379;51.506;11.876;2023-11-22T06:36:49;6.13;;;4.80;;
14584;SDS011;7379;51.506;11.876;2023-11-22T06:39:16;8.20;;;5.20;;
14584;SDS011;7379;51.506;11.876;2023-11-22T06:41:44;6.10;;;5.00;;
14584;SDS011;7379;51.506;11.876;2023-11-22T06:44:12;5.80;;;5.10;;
14584;SDS011;7379;51.506;11.876;2023-11-22T06:46:39;6.60;;;5.00;;
14584;SDS011;7379;51.506;11.876;2023-11-22T06:49:06;7.57;;;5.40;;
14584;SDS011;7379;51.506;11.876;2023-11-22T06:51:34;7.27;;;5.37;;
14584;SDS011;7379;51.506;11.876;2023-11-22T06:54:01;6.67;;;5.47;;
14584;SDS011;7379;51.506;11.876;2023-11-22T07:18:14;6.17;;;5.43;;
14584;SDS011;7379;51.506;11.876;2023-11-22T07:20:41;6.40;;;5.43;;
14584;SDS011;7379;51.506;11.876;2023-11-22T07:23:08;6.47;;;5.00;;
14584;SDS011;7379;51.506;11.876;2023-11-22T07:25:38;6.53;;;5.40;;
14584;SDS011;7379;51.506;11.876;2023-11-22T07:28:06;6.80;;;5.50;;
14584;SDS011;7379;51.506;11.876;2023-11-22T07:30:33;7.23;;;5.53;;
14584;SDS011;7379;51.506;11.876;2023-11-22T07:33:03;6.07;;;5.00;;
14584;SDS011;7379;51.506;11.876;2023-11-22T07:35:32;7.73;;;5.60;;
14584;SDS011;7379;51.506;11.876;2023-11-22T07:37:59;7.17;;;5.33;;
14584;SDS011;7379;51.506;11.876;2023-11-22T07:40:28;6.57;;;5.57;;
14584;SDS011;7379;51.506;11.876;2023-11-22T07:42:55;8.23;;;5.63;;
14584;SDS011;7379;51.506;11.876;2023-11-22T07:45:22;6.57;;;5.13;;
14584;SDS011;7379;51.506;11.876;2023-11-22T07:47:49;7.03;;;5.60;;
14584;SDS011;7379;51.506;11.876;2023-11-22T07:50:18;5.83;;;5.23;;
14584;SDS011;7379;51.506;11.876;2023-11-22T07:52:48;7.17;;;5.60;;
14584;SDS011;7379;51.506;11.876;2023-11-22T07:55:15;7.03;;;5.13;;
14584;SDS011;7379;51.506;11.876;2023-11-22T07:57:43;7.03;;;5.37;;
14584;SDS011;7379;51.506;11.876;2023-11-22T08:00:10;6.60;;;5.30;;
14584;SDS011;7379;51.506;11.876;2023-11-22T08:02:38;7.80;;;5.67;;
14584;SDS011;7379;51.506;11.876;2023-11-22T08:05:05;7.00;;;5.03;;
14584;SDS011;7379;51.506;11.876;2023-11-22T08:07:33;6.67;;;5.53;;
14584;SDS011;7379;51.506;11.876;2023-11-22T08:10:03;6.67;;;5.70;;
14584;SDS011;7379;51.506;11.876;2023-11-22T08:12:34;7.17;;;5.33;;
14584;SDS011;7379;51.506;11.876;2023-11-22T08:15:02;6.73;;;5.13;;
14584;SDS011;7379;51.506;11.876;2023-11-22T08:17:30;6.63;;;5.53;;
14584;SDS011;7379;51.506;11.876;2023-11-22T08:19:58;6.93;;;5.67;;
14584;SDS011;7379;51.506;11.876;2023-11-22T08:22:25;7.37;;;5.60;;
14584;SDS011;7379;51.506;11.876;2023-11-22T08:24:54;6.37;;;5.23;;
14584;SDS011;7379;51.506;11.876;2023-11-22T08:27:23;9.23;;;5.47;;
14584;SDS011;7379;51.506;11.876;2023-11-22T08:29:50;7.03;;;5.30;;
14584;SDS011;7379;51.506;11.876;2023-11-22T08:32:17;8.20;;;5.70;;
14584;SDS011;7379;51.506;11.876;2023-11-22T08:34:48;7.17;;;5.57;;
14584;SDS011;7379;51.506;11.876;2023-11-22T08:37:15;7.20;;;5.50;;
14584;SDS011;7379;51.506;11.876;2023-11-22T08:39:42;7.77;;;5.70;;
14584;SDS011;7379;51.506;11.876;2023-11-22T08:42:09;8.40;;;5.90;;
14584;SDS011;7379;51.506;11.876;2023-11-22T08:44:37;7.13;;;5.40;;
14584;SDS011;7379;51.506;11.876;2023-11-22T08:47:04;8.17;;;6.03;;
14584;SDS011;7379;51.506;11.876;2023-11-22T08:49:31;7.17;;;6.20;;
14584;SDS011;7379;51.506;11.876;2023-11-22T08:51:59;7.23;;;5.80;;
14584;SDS011;7379;51.506;11.876;2023-11-22T08:54:27;7.40;;;5.70;;
14584;SDS011;7379;51.506;11.876;2023-11-22T08:56:54;7.17;;;5.93;;
14584;SDS011;7379;51.506;11.876;2023-11-22T08:59:22;6.97;;;5.67;;
14584;SDS011;7379;51.506;11.876;2023-11-22T09:01:50;7.50;;;5.63;;
14584;SDS011;7379;51.506;11.876;2023-11-22T09:04:17;7.67;;;6.00;;
14584;SDS011;7379;51.506;11.876;2023-11-22T09:06:45;8.50;;;5.70;;
14584;SDS011;7379;51.506;11.876;2023-11-22T09:09:12;7.57;;;5.80;;
14584;SDS011;7379;51.506;11.876;2023-11-22T09:11:40;7.77;;;5.70;;
14584;SDS011;7379;51.506;11.876;2023-11-22T09:14:07;7.70;;;5.57;;
14584;SDS011;7379;51.506;11.876;2023-11-22T09:16:35;7.23;;;5.90;;
14584;SDS011;7379;51.506;11.876;2023-11-22T09:19:03;9.23;;;6.20;;
14584;SDS011;7379;51.506;11.876;2023-11-22T09:21:31;7.80;;;6.27;;
14584;SDS011;7379;51.506;11.876;2023-11-22T09:23:58;8.00;;;5.83;;
14584;SDS011;7379;51.506;11.876;2023-11-22T09:26:25;9.20;;;6.53;;
14584;SDS011;7379;51.506;11.876;2023-11-22T09:28:51;8.40;;;6.30;;
14584;SDS011;7379;51.506;11.876;2023-11-22T09:31:19;9.00;;;5.77;;
14584;SDS011;7379;51.506;11.876;2023-11-22T09:33:46;6.67;;;5.50;;
14584;SDS011;7379;51.506;11.876;2023-11-22T09:36:14;6.40;;;5.40;;
14584;SDS011;7379;51.506;11.876;2023-11-22T09:38:43;7.90;;;5.83;;
14584;SDS011;7379;51.506;11.876;2023-11-22T09:41:09;8.20;;;5.90;;
14584;SDS011;7379;51.506;11.876;2023-11-22T09:43:37;7.87;;;6.23;;
14584;SDS011;7379;51.506;11.876;2023-11-22T09:46:05;8.97;;;6.77;;
14584;SDS011;7379;51.506;11.876;2023-11-22T09:48:36;8.90;;;6.27;;
14584;SDS011;7379;51.506;11.876;2023-11-22T09:51:08;8.27;;;6.37;;
14584;SDS011;7379;51.506;11.876;2023-11-22T09:53:46;7.20;;;5.80;;
14584;SDS011;7379;51.506;11.876;2023-11-22T09:56:19;9.17;;;6.10;;
14584;SDS011;7379;51.506;11.876;2023-11-22T09:58:46;6.67;;;5.90;;
14584;SDS011;7379;51.506;11.876;2023-11-22T10:01:16;7.83;;;6.47;;
14584;SDS011;7379;51.506;11.876;2023-11-22T10:03:43;7.97;;;6.33;;
14584;SDS011;7379;51.506;11.876;2023-11-22T10:06:11;7.73;;;6.07;;
14584;SDS011;7379;51.506;11.876;2023-11-22T10:08:40;7.67;;;6.07;;
14584;SDS011;7379;51.506;11.876;2023-11-22T10:11:08;8.80;;;6.53;;
14584;SDS011;7379;51.506;11.876;2023-11-22T10:13:35;8.63;;;6.80;;
14584;SDS011;7379;51.506;11.876;2023-11-22T10:16:08;8.33;;;6.30;;
14584;SDS011;7379;51.506;11.876;2023-11-22T10:18:38;8.50;;;6.33;;
14584;SDS011;7379;51.506;11.876;2023-11-22T10:21:15;8.20;;;6.50;;
14584;SDS011;7379;51.506;11.876;2023-11-22T10:23:45;8.00;;;6.13;;
14584;SDS011;7379;51.506;11.876;2023-11-22T10:26:15;7.93;;;6.43;;
14584;SDS011;7379;51.506;11.876;2023-11-22T10:28:42;8.27;;;6.57;;
14584;SDS011;7379;51.506;11.876;2023-11-22T10:31:09;8.33;;;6.47;;
14584;SDS011;7379;51.506;11.876;2023-11-22T10:33:38;7.07;;;6.13;;
14584;SDS011;7379;51.506;11.876;2023-11-22T10:36:07;9.90;;;7.37;;
14584;SDS011;7379;51.506;11.876;2023-11-22T10:38:34;9.63;;;7.07;;
14584;SDS011;7379;51.506;11.876;2023-11-22T10:41:03;9.23;;;7.13;;
14584;SDS011;7379;51.506;11.876;2023-11-22T10:43:31;8.50;;;6.73;;
14584;SDS011;7379;51.506;11.876;2023-11-22T10:46:01;9.43;;;7.23;;
14584;SDS011;7379;51.506;11.876;2023-11-22T10:48:30;9.00;;;7.00;;
14584;SDS011;7379;51.506;11.876;2023-11-22T10:50:58;9.10;;;7.00;;
14584;SDS011;7379;51.506;11.876;2023-11-22T10:53:30;10.13;;;7.07;;
14584;SDS011;7379;51.506;11.876;2023-11-22T10:56:02;9.77;;;7.07;;
14584;SDS011;7379;51.506;11.876;2023-11-22T10:58:33;10.20;;;7.50;;
14584;SDS011;7379;51.506;11.876;2023-11-22T11:01:02;9.30;;;7.47;;
14584;SDS011;7379;51.506;11.876;2023-11-22T11:03:33;10.27;;;7.20;;
14584;SDS011;7379;51.506;11.876;2023-11-22T11:06:05;9.03;;;7.23;;
14584;SDS011;7379;51.506;11.876;2023-11-22T11:08:35;9.43;;;7.00;;
14584;SDS011;7379;51.506;11.876;2023-11-22T11:11:04;9.50;;;6.63;;
14584;SDS011;7379;51.506;11.876;2023-11-22T11:13:31;10.37;;;7.63;;
14584;SDS011;7379;51.506;11.876;2023-11-22T11:15:59;10.33;;;7.30;;
14584;SDS011;7379;51.506;11.876;2023-11-22T11:18:27;11.27;;;7.80;;
14584;SDS011;7379;51.506;11.876;2023-11-22T11:20:55;8.97;;;7.33;;
14584;SDS011;7379;51.506;11.876;2023-11-22T11:23:24;9.30;;;7.23;;
14584;SDS011;7379;51.506;11.876;2023-11-22T11:25:53;9.37;;;7.63;;
14584;SDS011;7379;51.506;11.876;2023-11-22T11:28:21;9.20;;;6.97;;
14584;SDS011;7379;51.506;11.876;2023-11-22T11:30:50;9.27;;;7.50;;
14584;SDS011;7379;51.506;11.876;2023-11-22T11:33:26;11.40;;;7.93;;
14584;SDS011;7379;51.506;11.876;2023-11-22T11:35:56;8.77;;;6.70;;
14584;SDS011;7379;51.506;11.876;2023-11-22T11:38:27;9.57;;;7.47;;
14584;SDS011;7379;51.506;11.876;2023-11-22T11:41:00;9.53;;;7.20;;
14584;SDS011;7379;51.506;11.876;2023-11-22T11:43:39;9.70;;;7.07;;
14584;SDS011;7379;51.506;11.876;2023-11-22T11:46:07;10.10;;;7.40;;
14584;SDS011;7379;51.506;11.876;2023-11-22T11:48:35;10.43;;;7.50;;
14584;SDS011;7379;51.506;11.876;2023-11-22T11:51:02;10.20;;;7.47;;
14584;SDS011;7379;51.506;11.876;2023-11-22T11:53:31;10.27;;;7.67;;
14584;SDS011;7379;51.506;11.876;2023-11-22T11:55:59;10.20;;;7.63;;
14584;SDS011;7379;51.506;11.876;2023-11-22T11:58:27;10.53;;;8.03;;
14584;SDS011;7379;51.506;11.876;2023-11-22T12:00:54;9.00;;;7.33;;
14584;SDS011;7379;51.506;11.876;2023-11-22T12:03:22;10.37;;;7.73;;
14584;SDS011;7379;51.506;11.876;2023-11-22T12:05:50;9.80;;;7.93;;
14584;SDS011;7379;51.506;11.876;2023-11-22T12:08:17;10.67;;;7.60;;
14584;SDS011;7379;51.506;11.876;2023-11-22T12:10:45;10.00;;;7.50;;
14584;SDS011;7379;51.506;11.876;2023-11-22T12:13:15;10.63;;;8.00;;
14584;SDS011;7379;51.506;11.876;2023-11-22T12:15:42;10.53;;;7.40;;
14584;SDS011;7379;51.506;11.876;2023-11-22T12:18:09;13.17;;;7.53;;
14584;SDS011;7379;51.506;11.876;2023-11-22T12:20:37;11.90;;;7.60;;
14584;SDS011;7379;51.506;11.876;2023-11-22T12:23:06;12.03;;;8.00;;
14584;SDS011;7379;51.506;11.876;2023-11-22T12:25:33;11.77;;;7.70;;
14584;SDS011;7379;51.506;11.876;2023-11-22T12:28:01;10.73;;;7.77;;
14584;SDS011;7379;51.506;11.876;2023-11-22T12:30:29;11.50;;;8.00;;
14584;SDS011;7379;51.506;11.876;2023-11-22T12:33:00;11.17;;;7.27;;
14584;SDS011;7379;51.506;11.876;2023-11-22T12:35:29;11.03;;;7.73;;
14584;SDS011;7379;51.506;11.876;2023-11-22T12:37:58;12.37;;;7.93;;
14584;SDS011;7379;51.506;11.876;2023-11-22T12:40:26;9.00;;;7.00;;
14584;SDS011;7379;51.506;11.876;2023-11-22T12:42:56;11.00;;;9.13;;
14584;SDS011;7379;51.506;11.876;2023-11-22T12:45:24;13.10;;;10.87;;
14584;SDS011;7379;51.506;11.876;2023-11-22T12:47:53;12.57;;;10.20;;
14584;SDS011;7379;51.506;11.876;2023-11-22T12:50:30;13.57;;;10.53;;
14584;SDS011;7379;51.506;11.876;2023-11-22T12:52:59;13.43;;;10.03;;
14584;SDS011;7379;51.506;11.876;2023-11-22T12:55:35;14.90;;;9.53;;
14584;SDS011;7379;51.506;11.876;2023-11-22T12:58:02;13.13;;;9.90;;
14584;SDS011;7379;51.506;11.876;2023-11-22T13:00:29;13.80;;;10.17;;
14584;SDS011;7379;51.506;11.876;2023-11-22T13:02:56;13.47;;;9.53;;
14584;SDS011;7379;51.506;11.876;2023-11-22T13:05:23;12.83;;;9.57;;
14584;SDS011;7379;51.506;11.876;2023-11-22T13:07:50;12.47;;;9.33;;
14584;SDS011;7379;51.506;11.876;2023-11-22T13:10:18;13.63;;;9.23;;
14584;SDS011;7379;51.506;11.876;2023-11-22T13:12:51;11.73;;;8.80;;
14584;SDS011;7379;51.506;11.876;2023-11-22T13:15:19;12.43;;;8.93;;
14584;SDS011;7379;51.506;11.876;2023-11-22T13:17:48;11.80;;;8.93;;
14584;SDS011;7379;51.506;11.876;2023-11-22T13:20:16;12.83;;;9.10;;
14584;SDS011;7379;51.506;11.876;2023-11-22T13:22:45;11.30;;;8.43;;
14584;SDS011;7379;51.506;11.876;2023-11-22T13:25:12;11.63;;;8.70;;
14584;SDS011;7379;51.506;11.876;2023-11-22T13:27:39;11.87;;;8.73;;
14584;SDS011;7379;51.506;11.876;2023-11-22T13:30:08;10.33;;;8.33;;
14584;SDS011;7379;51.506;11.876;2023-11-22T13:32:35;12.97;;;9.03;;
14584;SDS011;7379;51.506;11.876;2023-11-22T13:35:04;9.87;;;8.10;;
14584;SDS011;7379;51.506;11.876;2023-11-22T13:37:40;10.40;;;7.93;;
14584;SDS011;7379;51.506;11.876;2023-11-22T13:40:09;11.70;;;8.37;;
14584;SDS011;7379;51.506;11.876;2023-11-22T13:42:39;11.20;;;8.67;;
14584;SDS011;7379;51.506;11.876;2023-11-22T13:45:09;10.03;;;8.07;;
14584;SDS011;7379;51.506;11.876;2023-11-22T13:47:40;11.07;;;8.93;;
14584;SDS011;7379;51.506;11.876;2023-11-22T13:50:08;11.23;;;8.50;;
14584;SDS011;7379;51.506;11.876;2023-11-22T13:52:36;11.27;;;9.03;;
14584;SDS011;7379;51.506;11.876;2023-11-22T13:55:03;11.33;;;8.27;;
14584;SDS011;7379;51.506;11.876;2023-11-22T13:57:35;11.43;;;8.43;;
14584;SDS011;7379;51.506;11.876;2023-11-22T14:00:02;12.23;;;8.67;;
14584;SDS011;7379;51.506;11.876;2023-11-22T14:02:33;11.37;;;8.40;;
14584;SDS011;7379;51.506;11.876;2023-11-22T14:05:00;9.47;;;8.03;;
14584;SDS011;7379;51.506;11.876;2023-11-22T14:07:27;11.23;;;8.43;;
14584;SDS011;7379;51.506;11.876;2023-11-22T14:09:54;10.20;;;8.13;;
14584;SDS011;7379;51.506;11.876;2023-11-22T14:12:21;13.07;;;8.40;;
14584;SDS011;7379;51.506;11.876;2023-11-22T14:14:48;12.47;;;8.43;;
14584;SDS011;7379;51.506;11.876;2023-11-22T14:17:16;10.53;;;8.47;;
14584;SDS011;7379;51.506;11.876;2023-11-22T14:19:47;9.90;;;8.17;;
14584;SDS011;7379;51.506;11.876;2023-11-22T14:22:14;9.90;;;7.57;;
14584;SDS011;7379;51.506;11.876;2023-11-22T14:24:42;12.03;;;9.17;;
14584;SDS011;7379;51.506;11.876;2023-11-22T14:27:10;10.33;;;7.87;;
14584;SDS011;7379;51.506;11.876;2023-11-22T14:29:37;9.63;;;7.93;;
14584;SDS011;7379;51.506;11.876;2023-11-22T14:32:04;10.70;;;8.20;;
14584;SDS011;7379;51.506;11.876;2023-11-22T14:34:32;10.50;;;7.80;;
14584;SDS011;7379;51.506;11.876;2023-11-22T14:37:00;12.07;;;9.07;;
14584;SDS011;7379;51.506;11.876;2023-11-22T14:39:27;10.33;;;8.43;;
14584;SDS011;7379;51.506;11.876;2023-11-22T14:41:54;9.50;;;7.93;;
14584;SDS011;7379;51.506;11.876;2023-11-22T14:44:21;10.60;;;8.03;;
14584;SDS011;7379;51.506;11.876;2023-11-22T14:46:48;10.37;;;8.20;;
14584;SDS011;7379;51.506;11.876;2023-11-22T14:49:15;10.67;;;8.47;;
14584;SDS011;7379;51.506;11.876;2023-11-22T14:51:42;10.83;;;8.20;;
14584;SDS011;7379;51.506;11.876;2023-11-22T14:54:10;10.83;;;8.47;;
14584;SDS011;7379;51.506;11.876;2023-11-22T14:56:37;10.50;;;8.40;;
14584;SDS011;7379;51.506;11.876;2023-11-22T14:59:05;10.23;;;8.20;;
14584;SDS011;7379;51.506;11.876;2023-11-22T15:01:32;9.53;;;7.93;;
14584;SDS011;7379;51.506;11.876;2023-11-22T15:03:59;10.73;;;8.10;;
14584;SDS011;7379;51.506;11.876;2023-11-22T15:06:25;10.43;;;8.10;;
14584;SDS011;7379;51.506;11.876;2023-11-22T15:08:52;10.17;;;7.77;;
14584;SDS011;7379;51.506;11.876;2023-11-22T15:11:20;9.90;;;8.23;;